createdAt,value
2019-05-10T00:00:48.285Z,32.97
2019-05-10T00:03:39.834Z,28.77
2019-05-10T00:06:37.068Z,26.43
2019-05-10T00:09:19.134Z,38.87
2019-05-10T00:11:59.386Z,41.93
2019-05-10T00:14:36.349Z,39.23
2019-05-10T00:17:21.928Z,42.13
2019-05-10T00:19:53.632Z,34.97
2019-05-10T00:22:27.392Z,33.47
2019-05-10T00:25:05.372Z,42.60
2019-05-10T00:27:37.336Z,43.00
2019-05-10T00:30:11.448Z,38.60
2019-05-10T00:32:45.288Z,49.73
2019-05-10T00:35:25.818Z,49.23
2019-05-10T00:38:07.250Z,45.13
2019-05-10T00:40:45.420Z,41.83
2019-05-10T00:43:26.986Z,38.27
2019-05-10T00:46:00.275Z,50.60
2019-05-10T00:48:32.633Z,47.03
2019-05-10T00:51:06.319Z,42.90
2019-05-10T00:53:42.729Z,38.77
2019-05-10T00:56:19.442Z,35.50
2019-05-10T00:58:53.350Z,43.63
2019-05-10T01:01:30.005Z,49.23
2019-05-10T01:04:05.966Z,47.67
2019-05-10T01:06:44.027Z,48.70
2019-05-10T01:09:15.492Z,44.17
2019-05-10T01:12:35.065Z,43.87
2019-05-10T01:15:08.303Z,45.50
2019-05-10T01:17:44.793Z,42.27
2019-05-10T01:20:18.772Z,45.60
2019-05-10T01:22:54.420Z,41.30
2019-05-10T01:25:35.025Z,44.60
2019-05-10T01:28:04.873Z,38.70
2019-05-10T01:30:37.135Z,37.17
2019-05-10T01:33:10.501Z,37.30
2019-05-10T01:35:44.188Z,44.00
2019-05-10T01:38:15.550Z,38.40
2019-05-10T01:40:45.499Z,43.63
2019-05-10T01:43:19.551Z,38.47
2019-05-10T01:45:52.436Z,39.87
2019-05-10T01:48:26.004Z,40.93
2019-05-10T01:51:04.237Z,67.20
2019-05-10T01:53:35.924Z,38.63
2019-05-10T01:56:07.018Z,41.57
2019-05-10T01:58:40.108Z,44.23
2019-05-10T02:01:12.599Z,51.87
2019-05-10T02:03:49.731Z,60.27
2019-05-10T02:06:21.714Z,72.80
2019-05-10T02:08:54.129Z,72.37
2019-05-10T02:11:28.535Z,70.63
2019-05-10T02:14:04.684Z,74.53
2019-05-10T02:16:40.599Z,66.87
2019-05-10T02:19:15.906Z,79.43
2019-05-10T02:21:49.464Z,66.17
2019-05-10T02:24:32.751Z,79.47
2019-05-10T02:27:05.349Z,75.30
2019-05-10T02:29:49.789Z,61.33
2019-05-10T02:32:22.934Z,76.60
2019-05-10T02:34:57.985Z,80.30
2019-05-10T02:37:31.011Z,81.03
2019-05-10T02:40:17.156Z,61.80
2019-05-10T02:43:08.747Z,75.63
2019-05-10T02:48:28.802Z,79.57
2019-05-10T02:50:59.980Z,70.93
2019-05-10T02:53:36.890Z,63.23
2019-05-10T02:56:30.560Z,77.07
2019-05-10T02:59:01.902Z,69.67
2019-05-10T03:01:35.863Z,70.17
2019-05-10T03:04:07.104Z,54.03
2019-05-10T03:06:55.913Z,76.43
2019-05-10T03:09:35.534Z,92.13
2019-05-10T03:12:21.137Z,60.07
2019-05-10T03:18:03.694Z,74.13
2019-05-10T03:20:45.067Z,66.60
2019-05-10T03:23:20.697Z,62.43
2019-05-10T03:26:03.888Z,72.43
2019-05-10T03:28:41.185Z,72.53
2019-05-10T03:34:18.480Z,68.70
2019-05-10T03:43:00.744Z,80.60
2019-05-10T03:45:39.409Z,62.77
2019-05-10T03:48:16.940Z,51.10
2019-05-10T03:50:55.906Z,50.03
2019-05-10T03:53:24.910Z,74.10
2019-05-10T03:55:58.019Z,67.73
2019-05-10T03:58:36.250Z,47.13
2019-05-10T04:01:09.037Z,44.10
2019-05-10T04:03:59.653Z,35.43
2019-05-10T04:06:31.174Z,30.20
2019-05-10T04:11:57.777Z,49.67
2019-05-10T04:14:38.294Z,53.23
2019-05-10T04:17:18.180Z,48.57
2019-05-10T04:19:52.909Z,44.13
2019-05-10T04:25:33.460Z,47.43
2019-05-10T04:28:12.860Z,50.63
2019-05-10T04:33:47.605Z,50.53
2019-05-10T04:36:20.401Z,49.63
2019-05-10T04:38:53.127Z,49.03
2019-05-10T04:41:37.482Z,48.90
2019-05-10T04:44:12.822Z,53.73
2019-05-10T04:46:49.489Z,47.43
2019-05-10T04:49:26.770Z,42.87
2019-05-10T04:51:56.626Z,48.30
2019-05-10T04:54:30.190Z,40.03
2019-05-10T04:57:03.408Z,47.33
2019-05-10T04:59:44.017Z,42.43
2019-05-10T05:02:22.259Z,47.87
2019-05-10T05:04:58.399Z,42.77
2019-05-10T05:07:29.870Z,42.23
2019-05-10T05:10:12.078Z,48.27
2019-05-10T05:12:44.688Z,44.80
2019-05-10T05:15:17.117Z,46.37
2019-05-10T05:17:55.414Z,42.70
2019-05-10T05:20:29.994Z,44.93
2019-05-10T05:23:01.198Z,37.53
2019-05-10T05:25:43.719Z,32.97
2019-05-10T05:28:25.144Z,45.63
2019-05-10T05:31:11.852Z,51.00
2019-05-10T05:33:44.911Z,45.60
2019-05-10T05:36:19.249Z,50.60
2019-05-10T05:38:52.042Z,50.83
2019-05-10T05:44:43.481Z,55.33
2019-05-10T05:47:23.512Z,46.80
2019-05-10T05:50:23.040Z,50.77
2019-05-10T05:52:55.142Z,47.67
2019-05-10T05:55:33.392Z,57.20
2019-05-10T05:58:08.687Z,54.13
2019-05-10T06:00:44.520Z,48.67
2019-05-10T06:03:08.936Z,54.77
2019-05-10T06:05:39.312Z,50.97
2019-05-10T06:08:35.957Z,49.57
2019-05-10T06:25:28.808Z,40.03
2019-05-10T06:28:24.155Z,46.83
2019-05-10T06:34:43.716Z,53.00
2019-05-10T07:05:37.830Z,56.33
2019-05-10T07:08:43.224Z,55.33
2019-05-10T07:11:14.359Z,56.87
2019-05-10T07:14:10.193Z,64.80
2019-05-10T07:20:42.993Z,59.27
2019-05-10T09:11:32.834Z,27.77
2019-05-10T09:14:12.251Z,30.23
2019-05-10T09:16:59.791Z,22.77
2019-05-10T09:19:39.259Z,28.37
2019-05-10T09:22:06.328Z,26.03
2019-05-10T09:31:15.331Z,26.20
2019-05-10T09:54:34.344Z,24.00
2019-05-10T10:08:19.962Z,12.80
2019-05-10T10:42:13.113Z,12.33
2019-05-10T11:08:51.942Z,17.93
2019-05-10T11:14:53.063Z,14.47
2019-05-10T12:18:36.026Z,5.55
2019-05-10T12:31:15.108Z,5.90
2019-05-10T12:33:45.457Z,5.10
2019-05-10T12:36:33.379Z,4.58
2019-05-10T12:42:47.650Z,4.72
2019-05-10T12:45:47.642Z,4.35
2019-05-10T12:51:53.310Z,8.33
2019-05-10T12:57:52.607Z,5.97
2019-05-10T13:00:27.455Z,4.90
2019-05-10T13:03:13.381Z,4.85
2019-05-10T13:11:47.557Z,8.43
2019-05-10T13:20:48.579Z,7.50
2019-05-10T15:11:38.249Z,9.23
2019-05-10T15:28:46.928Z,13.28
2019-05-10T15:31:29.314Z,10.43
2019-05-10T15:34:08.875Z,12.20
2019-05-10T15:37:17.650Z,13.53
2019-05-10T15:50:13.856Z,11.25
2019-05-10T15:53:19.430Z,11.33
2019-05-10T15:58:42.498Z,8.90
2019-05-10T17:15:02.676Z,14.67
2019-05-10T19:27:13.824Z,14.77
2019-05-10T19:29:47.865Z,12.10
2019-05-10T19:32:24.160Z,12.13
2019-05-10T19:48:55.271Z,8.33
2019-05-10T19:51:34.532Z,4.73
2019-05-10T19:54:47.604Z,4.13
2019-05-10T22:57:23.932Z,43.10
2019-05-10T23:00:00.083Z,43.43
2019-05-10T23:02:37.033Z,44.00
2019-05-10T23:27:07.366Z,31.20
2019-05-10T23:29:45.083Z,29.50
2019-05-10T23:32:16.657Z,33.93
2019-05-10T23:38:21.594Z,29.90
2019-05-10T23:41:04.636Z,34.63
2019-05-10T23:43:32.579Z,33.90
2019-05-10T23:46:08.561Z,34.17
2019-05-10T23:48:40.715Z,28.70
2019-05-10T23:51:12.225Z,33.40
2019-05-10T23:53:49.178Z,33.23
2019-05-10T23:56:22.126Z,33.80
2019-05-10T23:59:00.145Z,34.20
